Time,TemperatureF,DewpointF,PressureIn,WindDirection,WindDirectionDegrees,WindSpeedMPH,WindSpeedGustMPH,Humidity,HourlyPrecipIn,Conditions,Clouds,dailyrainin,SoftwareType,DateUTC
2013-06-29 00:03:00,84.6,68.2,29.78,North,360,3.5,3.5,58,0.00,CLR,,0.00,WeatherDisplay:10.37,2013-06-29 05:03:00,
2013-06-29 00:08:00,84.5,68.6,29.78,North,360,2.3,2.3,59,0.00,CLR,,0.00,WeatherDisplay:10.37,2013-06-29 05:08:00,
2013-06-29 00:13:00,84.4,68.0,29.78,North,360,3.5,3.5,58,0.00,CLR,,0.00,WeatherDisplay:10.37,2013-06-29 05:13:00,
2013-06-29 00:18:00,84.3,67.9,29.78,North,360,2.3,2.3,58,0.00,CLR,,0.00,WeatherDisplay:10.37,2013-06-29 05:18:00,
2013-06-29 00:23:00,84.2,67.8,29.78,North,360,3.5,3.5,58,0.00,CLR,,0.00,WeatherDisplay:10.37,2013-06-29 05:23:00,
2013-06-29 00:28:00,84.0,67.6,29.78,North,360,3.5,3.5,58,0.00,CLR,,0.00,WeatherDisplay:10.37,2013-06-29 05:28:00,
2013-06-29 00:33:00,83.8,67.9,29.78,North,360,4.6,4.6,59,0.00,CLR,,0.00,WeatherDisplay:10.37,2013-06-29 05:33:00,
2013-06-29 00:38:00,83.7,67.8,29.78,North,360,3.5,3.5,59,0.00,CLR,,0.00,WeatherDisplay:10.37,2013-06-29 05:38:00,
2013-06-29 00:43:00,83.6,67.8,29.78,North,360,4.0,4.0,59,0.00,CLR,,0.00,WeatherDisplay:10.37,2013-06-29 05:43:00,
2013-06-29 00:48:00,83.5,67.7,29.79,North,360,3.5,3.5,59,0.00,CLR,,0.00,WeatherDisplay:10.37,2013-06-29 05:48:00,
2013-06-29 00:53:00,83.3,67.5,29.79,North,360,4.6,4.6,59,0.00,CLR,,0.00,WeatherDisplay:10.37,2013-06-29 05:53:00,
2013-06-29 00:58:00,83.1,67.3,29.79,North,360,3.5,3.5,59,0.00,CLR,,0.00,WeatherDisplay:10.37,2013-06-29 05:58:00,
2013-06-29 01:03:00,83.0,67.7,29.79,North,360,3.5,3.5,60,0.00,CLR,,0.00,WeatherDisplay:10.37,2013-06-29 06:03:00,
2013-06-29 01:08:00,82.7,67.4,29.79,North,360,3.5,3.5,60,0.00,CLR,,0.00,WeatherDisplay:10.37,2013-06-29 06:08:00,
2013-06-29 01:13:00,82.4,67.1,29.79,North,360,2.3,2.3,60,0.00,CLR,,0.00,WeatherDisplay:10.37,2013-06-29 06:13:00,
2013-06-29 01:18:00,82.1,67.3,29.79,North,360,0.0,0.1,61,0.00,CLR,,0.00,WeatherDisplay:10.37,2013-06-29 06:18:00,
2013-06-29 01:23:00,82.0,67.2,29.79,North,360,3.5,3.5,61,0.00,CLR,,0.00,WeatherDisplay:10.37,2013-06-29 06:23:00,
2013-06-29 01:28:00,81.8,67.0,29.79,North,360,3.5,3.5,61,0.00,CLR,,0.00,WeatherDisplay:10.37,2013-06-29 06:28:00,
2013-06-29 01:33:00,81.4,67.1,29.79,North,360,2.3,2.3,62,0.00,CLR,,0.00,WeatherDisplay:10.37,2013-06-29 06:33:00,
2013-06-29 01:38:00,81.2,66.9,29.79,North,360,2.3,2.3,62,0.00,CLR,,0.00,WeatherDisplay:10.37,2013-06-29 06:38:00,
2013-06-29 01:43:00,81.0,66.8,29.79,North,360,2.3,2.3,62,0.00,CLR,,0.00,WeatherDisplay:10.37,2013-06-29 06:43:00,
2013-06-29 01:48:00,80.8,67.0,29.79,North,360,2.3,2.3,63,0.00,CLR,,0.00,WeatherDisplay:10.37,2013-06-29 06:48:00,
2013-06-29 01:53:00,80.6,66.8,29.79,North,360,3.5,3.5,63,0.00,CLR,,0.00,WeatherDisplay:10.37,2013-06-29 06:53:00,
2013-06-29 01:58:00,80.6,66.4,29.79,North,360,2.3,2.3,62,0.00,CLR,,0.00,WeatherDisplay:10.37,2013-06-29 06:58:00,
2013-06-29 02:03:00,80.7,66.5,29.79,North,360,2.3,2.3,62,0.00,CLR,,0.00,WeatherDisplay:10.37,2013-06-29 07:03:00,
2013-06-29 02:08:00,80.6,66.4,29.79,North,360,2.3,2.3,62,0.00,CLR,,0.00,WeatherDisplay:10.37,2013-06-29 07:08:00,
2013-06-29 02:13:00,80.5,66.7,29.79,North,360,3.5,3.5,63,0.00,CLR,,0.00,WeatherDisplay:10.37,2013-06-29 07:13:00,
2013-06-29 02:18:00,80.5,66.7,29.79,North,360,3.5,3.5,63,0.00,CLR,,0.00,WeatherDisplay:10.37,2013-06-29 07:18:00,
2013-06-29 02:23:00,80.4,66.6,29.79,North,360,3.5,3.5,63,0.00,CLR,,0.00,WeatherDisplay:10.37,2013-06-29 07:23:00,
2013-06-29 02:28:00,80.4,66.6,29.78,North,360,1.1,0.0,63,0.00,CLR,,0.00,WeatherDisplay:10.37,2013-06-29 07:28:00,
2013-06-29 02:33:00,80.5,66.3,29.78,North,360,0.0,0.0,62,0.00,CLR,,0.00,WeatherDisplay:10.37,2013-06-29 07:33:00,
2013-06-29 02:38:00,80.6,66.4,29.78,North,360,0.0,0.0,62,0.00,CLR,,0.00,WeatherDisplay:10.37,2013-06-29 07:38:00,
2013-06-29 02:43:00,80.7,66.5,29.78,North,360,0.0,0.0,62,0.00,CLR,,0.00,WeatherDisplay:10.37,2013-06-29 07:43:00,
2013-06-29 02:48:00,80.5,66.7,29.78,North,360,0.0,0.0,63,0.00,CLR,,0.00,WeatherDisplay:10.37,2013-06-29 07:48:00,
2013-06-29 02:53:00,80.4,66.6,29.78,North,360,0.0,0.0,63,0.00,CLR,,0.00,WeatherDisplay:10.37,2013-06-29 07:53:00,
2013-06-29 02:58:00,80.3,67.0,29.78,North,360,0.0,0.0,64,0.00,CLR,,0.00,WeatherDisplay:10.37,2013-06-29 07:58:00,
2013-06-29 03:03:00,80.3,67.5,29.78,North,360,1.1,0.0,65,0.00,CLR,,0.00,WeatherDisplay:10.37,2013-06-29 08:03:00,
2013-06-29 03:08:00,80.2,67.4,29.78,North,360,1.1,1.1,65,0.00,CLR,,0.00,WeatherDisplay:10.37,2013-06-29 08:08:00,
2013-06-29 03:13:00,80.2,67.4,29.78,North,360,0.0,0.0,65,0.00,CLR,,0.00,WeatherDisplay:10.37,2013-06-29 08:13:00,
2013-06-29 03:18:00,80.2,67.4,29.78,North,360,0.0,0.0,65,0.00,CLR,,0.00,WeatherDisplay:10.37,2013-06-29 08:18:00,
2013-06-29 03:23:00,80.2,67.4,29.78,North,360,0.0,0.0,65,0.00,CLR,,0.00,WeatherDisplay:10.37,2013-06-29 08:23:00,
2013-06-29 03:28:00,80.3,67.0,29.77,North,360,0.0,0.0,64,0.00,CLR,,0.00,WeatherDisplay:10.37,2013-06-29 08:28:00,
2013-06-29 03:33:00,80.4,67.1,29.78,North,360,0.0,0.0,64,0.00,CLR,,0.00,WeatherDisplay:10.37,2013-06-29 08:33:00,
2013-06-29 03:38:00,80.3,67.0,29.78,North,360,0.0,0.0,64,0.00,CLR,,0.00,WeatherDisplay:10.37,2013-06-29 08:38:00,
2013-06-29 03:43:00,80.1,67.3,29.78,North,360,2.3,2.3,65,0.00,CLR,,0.00,WeatherDisplay:10.37,2013-06-29 08:43:00,
2013-06-29 03:48:00,79.8,67.0,29.78,North,360,3.5,3.5,65,0.00,CLR,,0.00,WeatherDisplay:10.37,2013-06-29 08:48:00,
2013-06-29 03:53:00,79.6,67.2,29.78,North,360,0.0,0.0,66,0.00,CLR,,0.00,WeatherDisplay:10.37,2013-06-29 08:53:00,
2013-06-29 03:58:00,79.4,67.0,29.78,North,360,2.3,2.3,66,0.00,CLR,,0.00,WeatherDisplay:10.37,2013-06-29 08:58:00,
2013-06-29 04:03:00,79.2,66.9,29.78,North,360,3.5,3.5,66,0.00,CLR,,0.00,WeatherDisplay:10.37,2013-06-29 09:03:00,
2013-06-29 04:08:00,79.1,66.8,29.78,North,360,2.3,2.3,66,0.00,CLR,,0.00,WeatherDisplay:10.37,2013-06-29 09:08:00,
2013-06-29 04:13:00,78.9,66.6,29.78,North,360,3.5,3.5,66,0.00,CLR,,0.00,WeatherDisplay:10.37,2013-06-29 09:13:00,
2013-06-29 04:18:00,78.7,66.4,29.78,North,360,2.3,2.3,66,0.00,CLR,,0.00,WeatherDisplay:10.37,2013-06-29 09:18:00,
2013-06-29 04:23:00,78.7,66.4,29.78,North,360,3.5,3.5,66,0.00,CLR,,0.00,WeatherDisplay:10.37,2013-06-29 09:23:00,
2013-06-29 04:28:00,78.7,66.4,29.78,North,360,3.5,3.5,66,0.00,CLR,,0.00,WeatherDisplay:10.37,2013-06-29 09:28:00,
2013-06-29 04:33:00,78.7,66.4,29.78,North,360,3.5,3.5,66,0.00,CLR,,0.00,WeatherDisplay:10.37,2013-06-29 09:33:00,
2013-06-29 04:38:00,78.4,66.1,29.78,North,360,2.3,2.3,66,0.00,CLR,,0.00,WeatherDisplay:10.37,2013-06-29 09:38:00,
2013-06-29 04:43:00,78.2,66.3,29.78,North,360,3.5,3.5,67,0.00,CLR,,0.00,WeatherDisplay:10.37,2013-06-29 09:43:00,
2013-06-29 04:48:00,77.9,66.1,29.79,North,360,3.5,3.5,67,0.00,CLR,,0.00,WeatherDisplay:10.37,2013-06-29 09:48:00,
2013-06-29 04:53:00,78.0,66.2,29.79,North,360,3.5,3.5,67,0.00,CLR,,0.00,WeatherDisplay:10.37,2013-06-29 09:53:00,
2013-06-29 04:54:00,78.1,66.2,29.79,North,360,2.3,2.3,67,0.00,CLR,,0.00,WeatherDisplay:10.37,2013-06-29 09:54:00,
2013-06-29 04:59:00,78.3,66.4,29.79,North,360,3.5,3.5,67,0.00,CLR,,0.00,WeatherDisplay:10.37,2013-06-29 09:59:00,
2013-06-29 05:04:00,78.5,66.2,29.79,North,360,4.6,4.6,66,0.00,CLR,,0.00,WeatherDisplay:10.37,2013-06-29 10:04:00,
2013-06-29 05:09:00,78.6,66.3,29.79,North,360,4.6,4.6,66,0.00,CLR,,0.00,WeatherDisplay:10.37,2013-06-29 10:09:00,
2013-06-29 05:14:00,78.5,66.2,29.79,North,360,3.5,3.5,66,0.00,CLR,,0.00,WeatherDisplay:10.37,2013-06-29 10:14:00,
2013-06-29 05:19:00,78.2,65.9,29.79,North,360,3.5,3.8,66,0.00,CLR,,0.00,WeatherDisplay:10.37,2013-06-29 10:19:00,
2013-06-29 05:24:00,77.9,65.2,29.79,North,360,4.6,4.6,65,0.00,CLR,,0.00,WeatherDisplay:10.37,2013-06-29 10:24:00,
2013-06-29 05:29:00,77.8,65.1,29.79,North,360,5.0,5.0,65,0.00,CLR,,0.00,WeatherDisplay:10.37,2013-06-29 10:29:00,
2013-06-29 05:34:00,77.8,65.1,29.79,North,360,4.6,4.6,65,0.00,CLR,,0.00,WeatherDisplay:10.37,2013-06-29 10:34:00,
2013-06-29 05:39:00,77.9,65.2,29.79,North,360,3.5,3.5,65,0.00,CLR,,0.00,WeatherDisplay:10.37,2013-06-29 10:39:00,
2013-06-29 05:44:00,78.0,65.3,29.79,North,360,3.5,3.5,65,0.00,CLR,,0.00,WeatherDisplay:10.37,2013-06-29 10:44:00,
2013-06-29 05:49:00,78.1,65.4,29.79,North,360,3.5,3.5,65,0.00,CLR,,0.00,WeatherDisplay:10.37,2013-06-29 10:49:00,
2013-06-29 05:54:00,78.3,65.1,29.79,North,360,3.5,3.5,64,0.00,CLR,,0.00,WeatherDisplay:10.37,2013-06-29 10:54:00,
2013-06-29 05:59:00,78.5,65.3,29.79,North,360,3.5,3.5,64,0.00,CLR,,0.00,WeatherDisplay:10.37,2013-06-29 10:59:00,
2013-06-29 06:04:00,78.7,65.0,29.79,North,360,2.3,2.3,63,0.00,CLR,,0.00,WeatherDisplay:10.37,2013-06-29 11:04:00,
2013-06-29 06:09:00,78.7,65.0,29.79,North,360,3.5,3.5,63,0.00,CLR,,0.00,WeatherDisplay:10.37,2013-06-29 11:09:00,
2013-06-29 06:14:00,78.9,64.8,29.79,North,360,2.3,2.3,62,0.00,CLR,,0.00,WeatherDisplay:10.37,2013-06-29 11:14:00,
2013-06-29 06:19:00,79.0,64.9,29.79,North,360,2.3,2.3,62,0.00,CLR,,0.00,WeatherDisplay:10.37,2013-06-29 11:19:00,
2013-06-29 06:24:00,78.9,64.8,29.79,North,360,3.5,3.5,62,0.00,CLR,,0.00,WeatherDisplay:10.37,2013-06-29 11:24:00,
2013-06-29 06:29:00,78.7,64.6,29.79,North,360,3.5,3.5,62,0.00,CLR,,0.00,WeatherDisplay:10.37,2013-06-29 11:29:00,
2013-06-29 06:34:00,78.5,64.9,29.79,North,360,4.6,4.6,63,0.00,CLR,,0.00,WeatherDisplay:10.37,2013-06-29 11:34:00,
2013-06-29 06:39:00,78.2,64.6,29.80,North,360,5.8,5.8,63,0.00,CLR,,0.00,WeatherDisplay:10.37,2013-06-29 11:39:00,
2013-06-29 06:44:00,77.9,64.7,29.80,North,360,6.0,6.0,64,0.00,CLR,,0.00,WeatherDisplay:10.37,2013-06-29 11:44:00,
2013-06-29 06:49:00,77.6,64.9,29.80,North,360,4.6,4.6,65,0.00,CLR,,0.00,WeatherDisplay:10.37,2013-06-29 11:49:00,
2013-06-29 06:54:00,77.4,64.7,29.80,North,360,5.8,5.8,65,0.00,CLR,,0.00,WeatherDisplay:10.37,2013-06-29 11:54:00,
2013-06-29 06:59:00,77.3,64.6,29.80,North,360,5.8,5.8,65,0.00,CLR,,0.00,WeatherDisplay:10.37,2013-06-29 11:59:00,
2013-06-29 07:04:00,77.3,64.6,29.80,North,360,6.0,6.0,65,0.00,CLR,,0.00,WeatherDisplay:10.37,2013-06-29 12:04:00,
2013-06-29 07:09:00,77.2,65.0,29.80,North,360,5.8,5.8,66,0.00,CLR,,0.00,WeatherDisplay:10.37,2013-06-29 12:09:00,
2013-06-29 07:14:00,77.4,64.7,29.80,NNE,24,5.0,5.0,65,0.00,CLR,,0.00,WeatherDisplay:10.37,2013-06-29 12:14:00,
2013-06-29 07:19:00,77.6,64.9,29.80,North,355,5.0,5.0,65,0.00,CLR,,0.00,WeatherDisplay:10.37,2013-06-29 12:19:00,
2013-06-29 07:24:00,77.8,65.1,29.80,WNW,296,5.8,5.8,65,0.00,CLR,,0.00,WeatherDisplay:10.37,2013-06-29 12:24:00,
2013-06-29 07:29:00,78.0,65.3,29.80,WNW,298,4.6,4.6,65,0.00,CLR,,0.00,WeatherDisplay:10.37,2013-06-29 12:29:00,
2013-06-29 07:34:00,78.2,65.5,29.80,NW,309,4.6,4.6,65,0.00,CLR,,0.00,WeatherDisplay:10.37,2013-06-29 12:34:00,
2013-06-29 07:39:00,78.7,65.9,29.80,NNE,13,4.6,4.6,65,0.00,CLR,,0.00,WeatherDisplay:10.37,2013-06-29 12:39:00,
2013-06-29 07:44:00,79.0,66.2,29.81,North,5,5.8,5.8,65,0.00,CLR,,0.00,WeatherDisplay:10.37,2013-06-29 12:44:00,
2013-06-29 07:49:00,79.4,66.6,29.80,North,5,3.5,3.5,65,0.00,CLR,,0.00,WeatherDisplay:10.37,2013-06-29 12:49:00,
2013-06-29 07:54:00,79.8,67.0,29.81,North,5,6.0,6.0,65,0.00,CLR,,0.00,WeatherDisplay:10.37,2013-06-29 12:54:00,
2013-06-29 07:59:00,80.2,66.5,29.81,NNW,327,8.1,8.1,63,0.00,CLR,,0.00,WeatherDisplay:10.37,2013-06-29 12:59:00,
2013-06-29 08:04:00,80.5,66.7,29.81,NNW,331,5.8,5.8,63,0.00,CLR,,0.00,WeatherDisplay:10.37,2013-06-29 13:04:00,
2013-06-29 08:09:00,81.0,66.8,29.81,NNW,338,9.2,9.2,62,0.00,CLR,,0.00,WeatherDisplay:10.37,2013-06-29 13:09:00,
2013-06-29 08:14:00,81.7,66.5,29.81,NNW,336,5.8,5.8,60,0.00,CLR,,0.00,WeatherDisplay:10.37,2013-06-29 13:14:00,
2013-06-29 08:19:00,82.4,66.6,29.81,West,263,5.8,5.8,59,0.00,CLR,,0.00,WeatherDisplay:10.37,2013-06-29 13:19:00,
2013-06-29 08:24:00,83.0,66.2,29.81,NW,322,10.4,10.4,57,0.00,CLR,,0.00,WeatherDisplay:10.37,2013-06-29 13:24:00,
2013-06-29 08:29:00,83.4,66.6,29.81,NNW,329,8.0,8.0,57,0.00,CLR,,0.00,WeatherDisplay:10.37,2013-06-29 13:29:00,
2013-06-29 08:34:00,83.9,67.5,29.81,NW,321,5.8,5.8,58,0.00,CLR,,0.00,WeatherDisplay:10.37,2013-06-29 13:34:00,
2013-06-29 08:39:00,84.4,66.5,29.81,NW,322,9.2,9.2,55,0.00,CLR,,0.00,WeatherDisplay:10.37,2013-06-29 13:39:00,
2013-06-29 08:44:00,84.8,66.8,29.81,NW,322,6.9,6.9,55,0.00,CLR,,0.00,WeatherDisplay:10.37,2013-06-29 13:44:00,
2013-06-29 08:49:00,85.2,67.2,29.81,NNW,329,5.8,5.8,55,0.00,CLR,,0.00,WeatherDisplay:10.37,2013-06-29 13:49:00,
2013-06-29 08:54:00,85.5,67.5,29.81,NNW,332,5.8,5.8,55,0.00,CLR,,0.00,WeatherDisplay:10.37,2013-06-29 13:54:00,
2013-06-29 08:59:00,86.0,68.0,29.81,NNW,331,6.9,6.9,55,0.00,CLR,,0.00,WeatherDisplay:10.37,2013-06-29 13:59:00,
2013-06-29 09:04:00,86.4,68.3,29.81,NNW,331,4.6,4.6,55,0.00,CLR,,0.00,WeatherDisplay:10.37,2013-06-29 14:04:00,
2013-06-29 09:09:00,86.7,69.1,29.81,NNW,327,3.5,3.5,56,0.00,CLR,,0.00,WeatherDisplay:10.37,2013-06-29 14:09:00,
2013-06-29 09:14:00,87.0,69.4,29.81,NNW,331,7.0,7.0,56,0.00,CLR,,0.00,WeatherDisplay:10.37,2013-06-29 14:14:00,
2013-06-29 09:19:00,87.1,68.4,29.81,NNW,346,4.6,4.6,54,0.00,CLR,,0.00,WeatherDisplay:10.37,2013-06-29 14:19:00,
2013-06-29 09:24:00,87.3,68.1,29.81,NNW,337,8.1,8.1,53,0.00,CLR,,0.00,WeatherDisplay:10.37,2013-06-29 14:24:00,
2013-06-29 09:29:00,87.7,68.4,29.81,NW,320,9.0,9.0,53,0.00,CLR,,0.00,WeatherDisplay:10.37,2013-06-29 14:29:00,
2013-06-29 09:34:00,88.3,67.9,29.81,NNW,329,10.4,10.4,51,0.00,CLR,,0.00,WeatherDisplay:10.37,2013-06-29 14:34:00,
2013-06-29 09:39:00,88.8,68.3,29.80,NW,326,9.0,9.0,51,0.00,CLR,,0.00,WeatherDisplay:10.37,2013-06-29 14:39:00,
2013-06-29 09:44:00,89.1,68.0,29.80,NW,321,6.9,6.9,50,0.00,CLR,,0.00,WeatherDisplay:10.37,2013-06-29 14:44:00,
2013-06-29 09:49:00,89.8,68.7,29.80,North,350,4.6,4.6,50,0.00,CLR,,0.00,WeatherDisplay:10.37,2013-06-29 14:49:00,
2013-06-29 09:54:00,90.3,67.9,29.80,North,349,10.4,10.4,48,0.00,CLR,,0.00,WeatherDisplay:10.37,2013-06-29 14:54:00,
2013-06-29 10:05:00,90.9,67.9,29.80,NNW,338,7.0,12.0,47,0.00,CLR,,0.00,WeatherDisplay:10.37,2013-06-29 15:05:00,
2013-06-29 10:20:00,91.7,69.2,29.81,NNW,335,6.0,12.0,48,0.00,CLR,,0.00,WeatherDisplay:10.37,2013-06-29 15:20:00,
2013-06-29 10:25:00,91.8,69.9,29.81,NNW,341,5.0,12.0,49,0.00,CLR,,0.00,WeatherDisplay:10.37,2013-06-29 15:25:00,
2013-06-29 10:35:00,92.1,69.0,29.81,NNW,342,7.0,16.0,47,0.00,CLR,,0.00,WeatherDisplay:10.37,2013-06-29 15:35:00,
2013-06-29 10:40:00,91.6,69.7,29.81,NNW,330,7.0,16.0,49,0.00,CLR,,0.00,WeatherDisplay:10.37,2013-06-29 15:40:00,
2013-06-29 10:50:00,90.9,70.3,29.81,NW,323,7.0,17.0,51,0.00,CLR,,0.00,WeatherDisplay:10.37,2013-06-29 15:50:00,
2013-06-29 10:55:00,91.1,69.9,29.81,NW,318,10.0,16.0,50,0.00,CLR,,0.00,WeatherDisplay:10.37,2013-06-29 15:55:00,
2013-06-29 11:05:00,91.0,70.4,29.81,NW,322,5.0,16.0,51,0.00,CLR,,0.00,WeatherDisplay:10.37,2013-06-29 16:05:00,
2013-06-29 11:10:00,91.2,70.0,29.81,NW,326,7.0,13.0,50,0.00,CLR,,0.00,WeatherDisplay:10.37,2013-06-29 16:10:00,
2013-06-29 11:20:00,92.4,71.6,29.82,NNW,340,3.0,12.0,51,0.00,CLR,,0.00,WeatherDisplay:10.37,2013-06-29 16:20:00,
2013-06-29 11:25:00,93.1,70.5,29.81,North,353,7.0,16.0,48,0.00,CLR,,0.00,WeatherDisplay:10.37,2013-06-29 16:25:00,
2013-06-29 11:35:00,92.2,69.7,29.81,NNW,328,10.0,16.0,48,0.00,CLR,,0.00,WeatherDisplay:10.37,2013-06-29 16:35:00,
2013-06-29 11:40:00,92.0,70.1,29.81,NNW,331,8.0,14.0,49,0.00,CLR,,0.00,WeatherDisplay:10.37,2013-06-29 16:40:00,
2013-06-29 11:50:00,92.8,69.6,29.81,NNW,331,8.0,16.0,47,0.00,CLR,,0.00,WeatherDisplay:10.37,2013-06-29 16:50:00,
2013-06-29 11:55:00,92.8,69.0,29.81,NNW,341,8.0,15.0,46,0.00,CLR,,0.00,WeatherDisplay:10.37,2013-06-29 16:55:00,
2013-06-29 12:05:00,92.4,68.6,29.82,NNW,340,6.0,14.0,46,0.00,CLR,,0.00,WeatherDisplay:10.37,2013-06-29 17:05:00,
2013-06-29 12:10:00,92.2,68.4,29.82,North,355,6.0,14.0,46,0.00,CLR,,0.00,WeatherDisplay:10.37,2013-06-29 17:10:00,
2013-06-29 12:20:00,92.8,69.0,29.82,North,350,7.0,15.0,46,0.00,CLR,,0.00,WeatherDisplay:10.37,2013-06-29 17:20:00,
2013-06-29 12:25:00,93.3,67.4,29.82,North,357,7.0,13.0,43,0.00,CLR,,0.00,WeatherDisplay:10.37,2013-06-29 17:25:00,
2013-06-29 12:35:00,93.6,67.0,29.82,NNW,347,7.0,16.0,42,0.00,CLR,,0.00,WeatherDisplay:10.37,2013-06-29 17:35:00,
2013-06-29 12:40:00,93.6,66.3,29.82,NNW,337,10.0,17.0,41,0.00,CLR,,0.00,WeatherDisplay:10.37,2013-06-29 17:40:00,
2013-06-29 12:50:00,93.7,65.0,29.82,NNW,335,5.0,16.0,39,0.00,CLR,,0.00,WeatherDisplay:10.37,2013-06-29 17:50:00,
2013-06-29 12:55:00,94.4,64.9,29.82,NNW,343,9.0,17.0,38,0.00,CLR,,0.00,WeatherDisplay:10.37,2013-06-29 17:55:00,
2013-06-29 13:05:00,94.4,65.6,29.80,NNW,338,7.0,16.0,39,0.00,CLR,,0.00,WeatherDisplay:10.37,2013-06-29 18:05:00,
2013-06-29 13:10:00,94.6,65.1,29.81,North,360,9.0,15.0,38,0.00,CLR,,0.00,WeatherDisplay:10.37,2013-06-29 18:10:00,
2013-06-29 13:20:00,95.2,64.9,29.80,North,355,5.0,13.0,37,0.00,CLR,,0.00,WeatherDisplay:10.37,2013-06-29 18:20:00,
2013-06-29 13:25:00,95.5,64.3,29.80,North,9,9.0,15.0,36,0.00,CLR,,0.00,WeatherDisplay:10.37,2013-06-29 18:25:00,
2013-06-29 13:35:00,95.1,64.7,29.80,NNW,347,8.0,22.0,37,0.00,CLR,,0.00,WeatherDisplay:10.37,2013-06-29 18:35:00,
2013-06-29 13:40:00,94.3,64.1,29.80,NNW,330,10.0,16.0,37,0.00,CLR,,0.00,WeatherDisplay:10.37,2013-06-29 18:40:00,
2013-06-29 13:50:00,93.3,64.7,29.79,NNW,335,6.0,12.0,39,0.00,CLR,,0.00,WeatherDisplay:10.37,2013-06-29 18:50:00,
2013-06-29 13:55:00,93.3,64.7,29.79,NNW,342,7.0,10.0,39,0.00,CLR,,0.00,WeatherDisplay:10.37,2013-06-29 18:55:00,
2013-06-29 14:05:00,93.3,64.7,29.79,NNW,334,5.0,12.0,39,0.00,CLR,,0.00,WeatherDisplay:10.37,2013-06-29 19:05:00,
2013-06-29 14:10:00,93.4,64.7,29.78,NNW,336,6.0,12.0,39,0.00,CLR,,0.00,WeatherDisplay:10.37,2013-06-29 19:10:00,
2013-06-29 14:20:00,94.3,64.8,29.79,NNW,347,6.0,12.0,38,0.00,CLR,,0.00,WeatherDisplay:10.37,2013-06-29 19:20:00,
2013-06-29 14:25:00,94.6,65.1,29.79,North,353,5.0,10.0,38,0.00,CLR,,0.00,WeatherDisplay:10.37,2013-06-29 19:25:00,
2013-06-29 14:35:00,94.8,63.7,29.79,North,358,8.0,12.0,36,0.00,CLR,,0.00,WeatherDisplay:10.37,2013-06-29 19:35:00,
2013-06-29 14:40:00,95.2,64.1,29.78,North,3,7.0,13.0,36,0.00,CLR,,0.00,WeatherDisplay:10.37,2013-06-29 19:40:00,
2013-06-29 14:50:00,94.8,64.5,29.78,NNW,348,7.0,12.0,37,0.00,CLR,,0.00,WeatherDisplay:10.37,2013-06-29 19:50:00,
2013-06-29 14:55:00,94.9,63.8,29.78,NNW,330,10.0,16.0,36,0.00,CLR,,0.00,WeatherDisplay:10.37,2013-06-29 19:55:00,
2013-06-29 15:05:00,95.9,63.8,29.78,North,358,5.0,13.0,35,0.00,CLR,,0.00,WeatherDisplay:10.37,2013-06-29 20:05:00,
2013-06-29 15:10:00,96.4,65.1,29.77,North,5,3.0,12.0,36,0.00,CLR,,0.00,WeatherDisplay:10.37,2013-06-29 20:10:00,
2013-06-29 15:20:00,96.5,64.4,29.77,North,7,3.0,12.0,35,0.00,CLR,,0.00,WeatherDisplay:10.37,2013-06-29 20:20:00,
2013-06-29 15:25:00,96.3,64.2,29.77,North,358,5.0,15.0,35,0.00,CLR,,0.00,WeatherDisplay:10.37,2013-06-29 20:25:00,
2013-06-29 15:35:00,96.7,63.7,29.76,North,11,7.0,14.0,34,0.00,CLR,,0.00,WeatherDisplay:10.37,2013-06-29 20:35:00,
2013-06-29 15:40:00,97.3,64.2,29.76,NNE,13,6.0,12.0,34,0.00,CLR,,0.00,WeatherDisplay:10.37,2013-06-29 20:40:00,
2013-06-29 15:50:00,96.9,61.3,29.75,NW,322,8.0,16.0,31,0.00,CLR,,0.00,WeatherDisplay:10.37,2013-06-29 20:50:00,
2013-06-29 15:55:00,97.4,63.5,29.76,NNW,340,7.0,13.0,33,0.00,CLR,,0.00,WeatherDisplay:10.37,2013-06-29 20:55:00,
2013-06-29 16:05:00,98.3,65.1,29.75,NNE,27,5.0,9.0,34,0.00,CLR,,0.00,WeatherDisplay:10.37,2013-06-29 21:05:00,
2013-06-29 16:10:00,98.7,64.6,29.75,North,3,5.0,10.0,33,0.00,CLR,,0.00,WeatherDisplay:10.37,2013-06-29 21:10:00,
2013-06-29 16:20:00,98.2,64.2,29.75,NNW,343,3.0,14.0,33,0.00,CLR,,0.00,WeatherDisplay:10.37,2013-06-29 21:20:00,
2013-06-29 16:25:00,98.2,63.3,29.75,North,1,10.0,17.0,32,0.00,CLR,,0.00,WeatherDisplay:10.37,2013-06-29 21:25:00,
2013-06-29 16:35:00,97.0,63.1,29.74,NNE,20,8.0,15.0,33,0.00,CLR,,0.00,WeatherDisplay:10.37,2013-06-29 21:35:00,
2013-06-29 16:40:00,97.1,63.2,29.74,North,4,6.0,20.0,33,0.00,CLR,,0.00,WeatherDisplay:10.37,2013-06-29 21:40:00,
2013-06-29 16:50:00,97.1,62.3,29.74,NNE,22,8.0,16.0,32,0.00,CLR,,0.00,WeatherDisplay:10.37,2013-06-29 21:50:00,
2013-06-29 16:55:00,96.9,63.0,29.74,NNE,23,6.0,18.0,33,0.00,CLR,,0.00,WeatherDisplay:10.37,2013-06-29 21:55:00,
2013-06-29 17:05:00,97.0,62.3,29.74,North,0,7.0,15.0,32,0.00,CLR,,0.00,WeatherDisplay:10.37,2013-06-29 22:05:00,
2013-06-29 17:10:00,96.9,62.2,29.74,North,1,6.0,18.0,32,0.00,CLR,,0.00,WeatherDisplay:10.37,2013-06-29 22:10:00,
2013-06-29 17:20:00,96.4,61.8,29.74,North,2,8.0,16.0,32,0.00,CLR,,0.00,WeatherDisplay:10.37,2013-06-29 22:20:00,
2013-06-29 17:25:00,96.0,61.4,29.74,North,7,7.0,17.0,32,0.00,CLR,,0.00,WeatherDisplay:10.37,2013-06-29 22:25:00,
2013-06-29 17:35:00,95.9,62.2,29.73,NNE,19,7.0,21.0,33,0.00,CLR,,0.00,WeatherDisplay:10.37,2013-06-29 22:35:00,
2013-06-29 17:40:00,95.9,61.3,29.74,North,359,9.0,14.0,32,0.00,CLR,,0.00,WeatherDisplay:10.37,2013-06-29 22:40:00,
2013-06-29 17:50:00,95.7,62.0,29.73,North,351,3.0,20.0,33,0.00,CLR,,0.00,WeatherDisplay:10.37,2013-06-29 22:50:00,
2013-06-29 17:55:00,95.8,62.1,29.73,North,356,7.0,13.0,33,0.00,CLR,,0.00,WeatherDisplay:10.37,2013-06-29 22:55:00,
2013-06-29 18:05:00,95.3,62.5,29.73,North,10,3.0,14.0,34,0.00,CLR,,0.00,WeatherDisplay:10.37,2013-06-29 23:05:00,
2013-06-29 18:10:00,94.9,63.0,29.73,NNE,12,2.0,16.0,35,0.00,CLR,,0.00,WeatherDisplay:10.37,2013-06-29 23:10:00,
2013-06-29 18:20:00,94.8,62.1,29.73,North,6,7.0,14.0,34,0.00,CLR,,0.00,WeatherDisplay:10.37,2013-06-29 23:20:00,
2013-06-29 18:25:00,94.5,61.8,29.73,North,6,5.0,14.0,34,0.00,CLR,,0.00,WeatherDisplay:10.37,2013-06-29 23:25:00,
2013-06-29 18:35:00,94.0,60.5,29.73,North,354,7.0,14.0,33,0.00,CLR,,0.00,WeatherDisplay:10.37,2013-06-29 23:35:00,
2013-06-29 18:40:00,94.0,60.5,29.72,North,8,3.0,15.0,33,0.00,CLR,,0.00,WeatherDisplay:10.37,2013-06-29 23:40:00,
2013-06-29 18:50:00,93.9,61.3,29.73,North,9,5.0,12.0,34,0.00,CLR,,0.00,WeatherDisplay:10.37,2013-06-29 23:50:00,
2013-06-29 18:55:00,93.8,61.2,29.73,North,354,7.0,12.0,34,0.00,CLR,,0.00,WeatherDisplay:10.37,2013-06-29 23:55:00,
2013-06-29 19:05:00,93.8,61.2,29.73,North,360,6.0,12.0,34,0.00,CLR,,0.00,WeatherDisplay:10.37,2013-06-30 00:05:00,
2013-06-29 19:20:00,93.4,62.5,29.72,North,10,5.0,13.0,36,0.00,CLR,,0.00,WeatherDisplay:10.37,2013-06-30 00:20:00,
2013-06-29 19:25:00,93.1,62.2,29.73,NNE,14,2.0,12.0,36,0.00,CLR,,0.00,WeatherDisplay:10.37,2013-06-30 00:25:00,
2013-06-29 19:35:00,92.6,62.5,29.73,North,9,7.0,14.0,37,0.00,CLR,,0.00,WeatherDisplay:10.37,2013-06-30 00:35:00,
2013-06-29 19:40:00,92.4,63.1,29.73,North,11,3.0,10.0,38,0.00,CLR,,0.00,WeatherDisplay:10.37,2013-06-30 00:40:00,
2013-06-29 19:50:00,91.9,62.6,29.74,North,9,3.0,6.0,38,0.00,CLR,,0.00,WeatherDisplay:10.37,2013-06-30 00:50:00,
2013-06-29 19:55:00,91.6,63.1,29.74,North,9,2.0,9.0,39,0.00,CLR,,0.00,WeatherDisplay:10.37,2013-06-30 00:55:00,
2013-06-29 20:05:00,90.9,63.3,29.74,North,8,2.0,7.0,40,0.00,CLR,,0.00,WeatherDisplay:10.37,2013-06-30 01:05:00,
2013-06-29 20:10:00,90.7,63.1,29.74,North,11,2.0,9.0,40,0.00,CLR,,0.00,WeatherDisplay:10.37,2013-06-30 01:10:00,
2013-06-29 20:20:00,90.1,63.2,29.74,NNE,17,1.0,4.0,41,0.00,CLR,,0.00,WeatherDisplay:10.37,2013-06-30 01:20:00,
2013-06-29 20:25:00,89.8,63.6,29.74,NNE,21,2.0,4.0,42,0.00,CLR,,0.00,WeatherDisplay:10.37,2013-06-30 01:25:00,
2013-06-29 20:35:00,89.0,63.6,29.74,NNE,28,2.0,6.0,43,0.00,CLR,,0.00,WeatherDisplay:10.37,2013-06-30 01:35:00,
2013-06-29 20:40:00,88.6,63.3,29.74,NNE,27,2.0,5.0,43,0.00,CLR,,0.00,WeatherDisplay:10.37,2013-06-30 01:40:00,
2013-06-29 20:50:00,88.0,62.7,29.75,NNE,27,5.0,7.0,43,0.00,CLR,,0.00,WeatherDisplay:10.37,2013-06-30 01:50:00,
2013-06-29 20:55:00,87.7,63.1,29.75,NNE,27,3.0,6.0,44,0.00,CLR,,0.00,WeatherDisplay:10.37,2013-06-30 01:55:00,
2013-06-29 21:05:00,87.2,63.3,29.75,NNE,28,3.0,6.0,45,0.00,CLR,,0.00,WeatherDisplay:10.37,2013-06-30 02:05:00,
2013-06-29 21:10:00,87.0,63.1,29.75,NNE,26,2.0,7.0,45,0.00,CLR,,0.00,WeatherDisplay:10.37,2013-06-30 02:10:00,
2013-06-29 21:20:00,86.6,63.3,29.75,NNE,25,2.0,6.0,46,0.00,CLR,,0.00,WeatherDisplay:10.37,2013-06-30 02:20:00,
2013-06-29 21:25:00,86.2,63.0,29.75,NNE,25,3.0,6.0,46,0.00,CLR,,0.00,WeatherDisplay:10.37,2013-06-30 02:25:00,
2013-06-29 21:35:00,85.7,63.1,29.75,NNE,25,2.0,6.0,47,0.00,CLR,,0.00,WeatherDisplay:10.37,2013-06-30 02:35:00,
2013-06-29 21:40:00,85.6,63.0,29.76,NNE,25,2.0,6.0,47,0.00,CLR,,0.00,WeatherDisplay:10.37,2013-06-30 02:40:00,
2013-06-29 21:50:00,85.2,63.3,29.76,NNE,26,2.0,5.0,48,0.00,CLR,,0.00,WeatherDisplay:10.37,2013-06-30 02:50:00,
2013-06-29 22:05:00,84.5,63.2,29.77,NNE,27,3.0,5.0,49,0.00,CLR,,0.00,WeatherDisplay:10.37,2013-06-30 03:05:00,
2013-06-29 22:10:00,84.2,63.5,29.77,NNE,27,2.0,5.0,50,0.00,CLR,,0.00,WeatherDisplay:10.37,2013-06-30 03:10:00,
2013-06-29 22:20:00,83.8,63.7,29.77,NNE,27,2.0,5.0,51,0.00,CLR,,0.00,WeatherDisplay:10.37,2013-06-30 03:20:00,
2013-06-29 22:25:00,83.5,63.5,29.77,NNE,27,1.0,4.0,51,0.00,CLR,,0.00,WeatherDisplay:10.37,2013-06-30 03:25:00,
2013-06-29 22:35:00,83.1,63.7,29.77,NNE,27,1.0,4.0,52,0.00,CLR,,0.00,WeatherDisplay:10.37,2013-06-30 03:35:00,
2013-06-29 22:40:00,82.9,63.5,29.77,NNE,26,1.0,3.0,52,0.00,CLR,,0.00,WeatherDisplay:10.37,2013-06-30 03:40:00,
2013-06-29 22:50:00,82.6,63.2,29.77,NNE,27,0.0,2.0,52,0.00,CLR,,0.00,WeatherDisplay:10.37,2013-06-30 03:50:00,
2013-06-29 23:05:00,82.3,63.5,29.78,NNE,27,1.0,4.0,53,0.00,CLR,,0.00,WeatherDisplay:10.37,2013-06-30 04:05:00,
2013-06-29 23:10:00,82.2,63.3,29.78,NNE,27,1.0,3.0,53,0.00,CLR,,0.00,WeatherDisplay:10.37,2013-06-30 04:10:00,
2013-06-29 23:20:00,81.8,63.0,29.78,NNE,27,0.0,0.0,53,0.00,CLR,,0.00,WeatherDisplay:10.37,2013-06-30 04:20:00,
2013-06-29 23:25:00,81.7,62.9,29.78,NNE,27,0.0,0.0,53,0.00,CLR,,0.00,WeatherDisplay:10.37,2013-06-30 04:25:00,
2013-06-29 23:35:00,81.5,62.7,29.78,NNE,27,0.0,2.0,53,0.00,CLR,,0.00,WeatherDisplay:10.37,2013-06-30 04:35:00,
2013-06-29 23:40:00,81.5,62.7,29.78,NNE,27,1.0,3.0,53,0.00,CLR,,0.00,WeatherDisplay:10.37,2013-06-30 04:40:00,
2013-06-29 23:50:00,81.5,63.3,29.78,NNE,27,0.0,0.0,54,0.00,CLR,,0.00,WeatherDisplay:10.37,2013-06-30 04:50:00,
2013-06-29 23:55:00,81.4,63.2,29.78,NNE,27,0.0,0.0,54,0.00,CLR,,0.00,WeatherDisplay:10.37,2013-06-30 04:55:00,